createdAt,value
2023-04-28T00:01:12.599Z,97740.25
2023-04-28T00:03:40.307Z,97739.09
2023-04-28T00:06:07.647Z,97735.50
2023-04-28T00:08:35.518Z,97735.00
2023-04-28T00:11:02.789Z,97741.41
2023-04-28T00:13:30.059Z,97736.75
2023-04-28T00:15:57.323Z,97742.56
2023-04-28T00:18:24.593Z,97742.31
2023-04-28T00:20:51.968Z,97733.34
2023-04-28T00:23:19.160Z,97737.59
2023-04-28T00:25:55.599Z,97732.25
2023-04-28T00:28:33.511Z,97731.25
2023-04-28T00:31:02.026Z,97728.63
2023-04-28T00:33:29.397Z,97733.59
2023-04-28T00:36:01.403Z,97730.63
2023-04-28T00:38:28.968Z,97733.63
2023-04-28T00:40:56.735Z,97732.66
2023-04-28T00:43:23.944Z,97741.44
2023-04-28T00:45:52.371Z,97742.81
2023-04-28T00:48:19.849Z,97741.22
2023-04-28T00:50:49.116Z,97740.22
2023-04-28T00:53:16.560Z,97734.66
2023-04-28T00:55:43.734Z,97737.81
2023-04-28T00:58:11.410Z,97742.66
2023-04-28T01:00:39.507Z,97737.84
2023-04-28T01:03:08.085Z,97738.97
2023-04-28T01:05:36.848Z,97741.56
2023-04-28T01:08:04.754Z,97742.16
2023-04-28T01:10:32.987Z,97746.38
2023-04-28T01:13:07.356Z,97746.38
2023-04-28T01:15:34.898Z,97747.97
2023-04-28T01:18:02.120Z,97750.59
2023-04-28T01:20:29.794Z,97745.34
2023-04-28T01:22:57.208Z,97750.34
2023-04-28T01:25:24.408Z,97735.84
2023-04-28T01:27:52.840Z,97737.63
2023-04-28T01:30:20.111Z,97741.50
2023-04-28T01:32:47.281Z,97738.56
2023-04-28T01:35:14.651Z,97738.56
2023-04-28T01:37:41.833Z,97739.94
2023-04-28T01:40:09.966Z,97736.72
2023-04-28T01:42:37.159Z,97739.53
2023-04-28T01:45:05.390Z,97729.56
2023-04-28T01:47:32.946Z,97743.41
2023-04-28T01:50:00.158Z,97738.63
2023-04-28T01:52:28.160Z,97739.03
2023-04-28T01:54:55.574Z,97733.97
2023-04-28T01:57:23.028Z,97732.00
2023-04-28T01:59:51.544Z,97732.59
2023-04-28T02:02:18.915Z,97736.00
2023-04-28T02:04:46.288Z,97735.56
2023-04-28T02:07:13.546Z,97728.13
2023-04-28T02:09:42.212Z,97732.97
2023-04-28T02:12:09.473Z,97739.41
2023-04-28T02:14:36.716Z,97733.19
2023-04-28T02:17:05.465Z,97732.19
2023-04-28T02:19:33.890Z,97730.38
2023-04-28T02:22:01.075Z,97730.03
2023-04-28T02:24:28.388Z,97732.06
2023-04-28T02:26:59.000Z,97726.41
2023-04-28T02:29:28.448Z,97731.44
2023-04-28T02:31:58.341Z,97724.66
2023-04-28T02:34:25.620Z,97721.44
2023-04-28T02:36:52.851Z,97721.84
2023-04-28T02:39:22.056Z,97728.47
2023-04-28T02:41:49.284Z,97722.59
2023-04-28T02:44:16.630Z,97724.56
2023-04-28T02:46:44.080Z,97724.75
2023-04-28T02:49:11.353Z,97716.72
2023-04-28T02:51:38.719Z,97724.47
2023-04-28T02:54:06.259Z,97712.00
2023-04-28T02:56:35.160Z,97714.97
2023-04-28T02:59:04.004Z,97716.56
2023-04-28T03:01:31.353Z,97724.78
2023-04-28T03:03:59.097Z,97716.69
2023-04-28T03:06:26.871Z,97721.88
2023-04-28T03:08:54.077Z,97723.25
2023-04-28T03:11:21.662Z,97727.09
2023-04-28T03:13:48.939Z,97724.75
2023-04-28T03:16:16.152Z,97733.78
2023-04-28T03:18:43.561Z,97732.94
2023-04-28T03:21:10.856Z,97722.69
2023-04-28T03:23:38.019Z,97724.00
2023-04-28T03:26:05.890Z,97728.31
2023-04-28T03:28:33.165Z,97718.66
2023-04-28T03:31:01.375Z,97711.38
2023-04-28T03:33:28.818Z,97715.38
2023-04-28T03:35:56.653Z,97717.38
2023-04-28T03:38:24.026Z,97720.28
2023-04-28T03:40:51.512Z,97722.03
2023-04-28T03:43:35.580Z,97725.03
2023-04-28T03:46:19.057Z,97715.50
2023-04-28T03:48:46.402Z,97715.78
2023-04-28T03:51:13.975Z,97714.13
2023-04-28T03:53:42.199Z,97713.31
2023-04-28T03:56:09.913Z,97710.31
2023-04-28T03:58:37.191Z,97710.81
2023-04-28T04:01:05.199Z,97710.63
2023-04-28T04:03:32.737Z,97718.28
2023-04-28T04:06:00.180Z,97720.50
2023-04-28T04:08:27.443Z,97716.34
2023-04-28T04:10:56.036Z,97725.13
2023-04-28T04:13:23.492Z,97724.81
2023-04-28T04:15:52.776Z,97727.09
2023-04-28T04:18:21.955Z,97724.25
2023-04-28T04:21:09.727Z,97719.47
2023-04-28T04:23:37.186Z,97732.16
2023-04-28T04:26:04.476Z,97728.81
2023-04-28T04:28:32.173Z,97735.00
2023-04-28T04:30:59.783Z,97734.19
2023-04-28T04:33:27.046Z,97735.53
2023-04-28T04:35:54.710Z,97731.09
2023-04-28T04:38:22.045Z,97734.13
2023-04-28T04:40:49.504Z,97740.94
2023-04-28T04:43:16.829Z,97735.06
2023-04-28T04:45:48.380Z,97740.44
2023-04-28T04:48:15.876Z,97733.22
2023-04-28T04:50:43.812Z,97737.63
2023-04-28T04:53:14.588Z,97740.03
2023-04-28T04:55:43.883Z,97741.97
2023-04-28T04:58:11.692Z,97735.03
2023-04-28T05:00:57.803Z,97738.34
2023-04-28T05:03:25.340Z,97732.84
2023-04-28T05:05:53.116Z,97731.75
2023-04-28T05:08:30.357Z,97727.78
2023-04-28T05:10:58.465Z,97737.97
2023-04-28T05:13:25.906Z,97738.56
2023-04-28T05:15:59.835Z,97742.69
2023-04-28T05:18:55.078Z,97741.38
2023-04-28T05:21:22.316Z,97744.88
2023-04-28T05:23:50.050Z,97745.44
2023-04-28T05:26:17.410Z,97742.03
2023-04-28T05:28:44.776Z,97745.22
2023-04-28T05:31:12.001Z,97745.41
2023-04-28T05:33:39.485Z,97748.47
2023-04-28T05:36:07.631Z,97745.03
2023-04-28T05:38:36.118Z,97745.88
2023-04-28T05:41:03.845Z,97753.00
2023-04-28T05:43:31.375Z,97746.38
2023-04-28T05:45:59.087Z,97748.19
2023-04-28T05:48:26.568Z,97748.44
2023-04-28T05:50:54.955Z,97744.75
2023-04-28T05:53:22.338Z,97750.66
2023-04-28T05:55:50.329Z,97749.72
2023-04-28T05:58:17.824Z,97752.78
2023-04-28T06:00:45.251Z,97751.41
2023-04-28T06:03:15.089Z,97750.97
2023-04-28T06:05:42.779Z,97751.72
2023-04-28T06:08:10.785Z,97748.78
2023-04-28T06:10:38.114Z,97756.53
2023-04-28T06:13:06.614Z,97746.03
2023-04-28T06:15:34.035Z,97753.16
2023-04-28T06:18:01.461Z,97748.03
2023-04-28T06:20:28.831Z,97749.75
2023-04-28T06:22:56.216Z,97744.78
2023-04-28T06:25:23.556Z,97744.13
2023-04-28T06:27:50.927Z,97743.00
2023-04-28T06:30:23.304Z,97742.41
2023-04-28T06:32:50.920Z,97733.31
2023-04-28T06:35:18.546Z,97733.50
2023-04-28T06:37:45.949Z,97731.75
2023-04-28T06:40:13.254Z,97738.53
2023-04-28T06:42:49.358Z,97740.50
2023-04-28T06:45:24.686Z,97735.63
2023-04-28T06:47:52.684Z,97735.16
2023-04-28T06:50:20.056Z,97733.91
2023-04-28T06:52:47.438Z,97743.97
2023-04-28T06:55:20.082Z,97741.56
2023-04-28T06:57:47.472Z,97740.97
2023-04-28T07:00:15.523Z,97730.38
2023-04-28T07:02:43.046Z,97724.47
2023-04-28T07:05:10.581Z,97722.19
2023-04-28T07:07:41.078Z,97731.38
2023-04-28T07:10:09.116Z,97727.28
2023-04-28T07:12:36.744Z,97723.69
2023-04-28T07:15:04.173Z,97715.47
2023-04-28T07:17:31.502Z,97726.47
2023-04-28T07:19:59.147Z,97717.28
2023-04-28T07:22:26.792Z,97726.28
2023-04-28T07:24:54.098Z,97714.06
2023-04-28T07:27:21.567Z,97708.28
2023-04-28T07:29:48.806Z,97705.97
2023-04-28T07:32:16.313Z,97697.56
2023-04-28T07:34:43.781Z,97698.72
2023-04-28T07:37:12.068Z,97696.00
2023-04-28T07:39:40.646Z,97693.19
2023-04-28T07:42:07.840Z,97695.75
2023-04-28T07:44:35.919Z,97694.84
2023-04-28T07:47:03.743Z,97695.97
2023-04-28T07:49:31.451Z,97686.81
2023-04-28T07:51:58.721Z,97684.06
2023-04-28T07:54:26.145Z,97688.03
2023-04-28T07:56:53.485Z,97681.66
2023-04-28T07:59:20.963Z,97680.09
2023-04-28T08:01:48.397Z,97677.63
2023-04-28T08:04:16.125Z,97677.19
2023-04-28T08:06:43.661Z,97677.72
2023-04-28T08:09:11.335Z,97676.03
2023-04-28T08:11:38.665Z,97670.44
2023-04-28T08:14:06.111Z,97666.22
2023-04-28T08:16:34.510Z,97667.41
2023-04-28T08:19:02.068Z,97669.16
2023-04-28T08:21:29.464Z,97656.66
2023-04-28T08:23:56.622Z,97667.28
2023-04-28T08:26:25.021Z,97662.09
2023-04-28T08:28:53.346Z,97662.66
2023-04-28T08:31:20.695Z,97655.25
2023-04-28T08:33:51.211Z,97655.88
2023-04-28T08:36:18.931Z,97649.03
2023-04-28T08:38:46.349Z,97642.41
2023-04-28T08:41:16.748Z,97652.44
2023-04-28T08:43:44.858Z,97649.28
2023-04-28T08:46:14.678Z,97648.81
2023-04-28T08:48:45.635Z,97650.19
2023-04-28T08:51:28.879Z,97639.91
2023-04-28T08:54:18.935Z,97639.88
2023-04-28T08:56:47.643Z,97647.44
2023-04-28T08:59:15.832Z,97651.31
2023-04-28T09:01:43.132Z,97647.22
2023-04-28T09:04:14.194Z,97649.84
2023-04-28T09:06:42.104Z,97628.22
2023-04-28T09:09:33.284Z,97625.03
2023-04-28T09:12:04.909Z,97620.34
2023-04-28T09:14:38.362Z,97620.50
2023-04-28T09:17:14.600Z,97621.63
2023-04-28T09:19:43.510Z,97618.78
2023-04-28T09:22:25.432Z,97624.94
2023-04-28T09:24:55.498Z,97612.38
2023-04-28T09:27:29.501Z,97608.56
2023-04-28T09:29:57.109Z,97611.22
2023-04-28T09:32:25.964Z,97605.38
2023-04-28T09:34:57.084Z,97616.13
2023-04-28T09:37:32.295Z,97616.28
2023-04-28T09:40:09.619Z,97614.63
2023-04-28T09:42:41.282Z,97622.25
2023-04-28T09:45:10.768Z,97606.06
2023-04-28T09:47:41.301Z,97595.63
2023-04-28T09:50:12.880Z,97590.97
2023-04-28T09:52:44.260Z,97589.41
2023-04-28T09:55:12.913Z,97585.53
2023-04-28T09:57:41.476Z,97591.13
2023-04-28T10:00:09.649Z,97590.88
2023-04-28T10:05:10.364Z,97575.06
2023-04-28T10:07:39.375Z,97573.38
2023-04-28T10:10:08.284Z,97566.00
2023-04-28T10:12:38.818Z,97549.31
2023-04-28T10:15:09.671Z,97545.44
2023-04-28T10:17:38.876Z,97550.13
2023-04-28T10:20:08.832Z,97533.00
2023-04-28T10:23:26.996Z,97540.84
2023-04-28T10:25:59.808Z,97533.97
2023-04-28T10:28:27.795Z,97531.97
2023-04-28T10:31:22.145Z,97510.72
2023-04-28T10:33:50.066Z,97515.69
2023-04-28T10:36:55.862Z,97518.03
2023-04-28T10:39:23.291Z,97505.06
2023-04-28T10:41:50.489Z,97515.00
2023-04-28T10:44:32.320Z,97516.88
2023-04-28T10:47:07.899Z,97511.91
2023-04-28T10:49:57.739Z,97522.78
2023-04-28T10:52:33.527Z,97510.72
2023-04-28T10:55:27.049Z,97507.19
2023-04-28T10:58:16.147Z,97499.75
2023-04-28T11:00:48.023Z,97496.44
2023-04-28T11:03:40.506Z,97491.66
2023-04-28T11:06:45.724Z,97481.34
2023-04-28T11:09:12.895Z,97479.72
2023-04-28T11:11:59.245Z,97480.47
2023-04-28T11:14:26.307Z,97477.25
2023-04-28T11:17:02.736Z,97471.56
2023-04-28T11:19:35.157Z,97472.09
2023-04-28T11:22:15.450Z,97474.53
2023-04-28T11:24:56.467Z,97480.84
2023-04-28T11:27:25.648Z,97483.63
2023-04-28T11:29:53.441Z,97476.88
2023-04-28T11:32:32.141Z,97470.00
2023-04-28T11:34:59.927Z,97466.34
2023-04-28T11:37:27.626Z,97461.44
2023-04-28T11:39:55.092Z,97459.47
2023-04-28T11:42:22.501Z,97458.41
2023-04-28T11:44:54.735Z,97460.13
2023-04-28T11:47:33.676Z,97453.44
2023-04-28T11:50:02.744Z,97457.41
2023-04-28T11:52:30.518Z,97459.41
2023-04-28T11:55:02.044Z,97440.31
2023-04-28T11:57:29.488Z,97441.66
2023-04-28T12:00:22.038Z,97434.94
2023-04-28T12:02:49.633Z,97435.59
2023-04-28T12:05:17.447Z,97421.41
2023-04-28T12:07:45.709Z,97426.09
2023-04-28T12:10:17.379Z,97423.28
2023-04-28T12:12:51.977Z,97418.66
2023-04-28T12:15:22.726Z,97410.63
2023-04-28T12:17:50.855Z,97424.53
2023-04-28T12:20:39.691Z,97420.34
2023-04-28T12:23:08.036Z,97408.53
2023-04-28T12:25:45.317Z,97399.22
2023-04-28T12:28:12.769Z,97396.97
2023-04-28T12:30:44.643Z,97396.41
2023-04-28T12:33:29.164Z,97385.97
2023-04-28T12:35:58.388Z,97372.09
2023-04-28T12:38:26.488Z,97373.09
2023-04-28T12:40:54.222Z,97381.38
2023-04-28T12:43:23.635Z,97387.03
2023-04-28T12:45:53.687Z,97387.56
2023-04-28T12:48:22.490Z,97392.03
2023-04-28T12:50:49.692Z,97376.47
2023-04-28T12:53:16.957Z,97374.47
2023-04-28T12:55:44.322Z,97365.66
2023-04-28T12:58:11.608Z,97359.41
2023-04-28T13:00:39.337Z,97362.97
2023-04-28T13:03:06.981Z,97351.00
2023-04-28T13:05:35.232Z,97344.03
2023-04-28T13:08:02.630Z,97343.00
2023-04-28T13:10:30.034Z,97341.00
2023-04-28T13:12:57.465Z,97342.53
2023-04-28T13:15:24.951Z,97337.84
2023-04-28T13:17:52.333Z,97336.28
2023-04-28T13:20:19.549Z,97333.47
2023-04-28T13:22:46.739Z,97337.97
2023-04-28T13:25:14.115Z,97352.31
2023-04-28T13:27:43.193Z,97336.56
2023-04-28T13:30:12.011Z,97334.19
2023-04-28T13:32:39.230Z,97337.00
2023-04-28T13:35:08.384Z,97338.94
2023-04-28T13:37:38.048Z,97334.84
2023-04-28T13:40:06.292Z,97327.13
2023-04-28T13:42:33.410Z,97332.25
2023-04-28T13:45:00.788Z,97323.44
2023-04-28T13:47:28.945Z,97321.19
2023-04-28T13:49:56.225Z,97321.97
2023-04-28T13:52:23.539Z,97324.78
2023-04-28T13:54:50.730Z,97313.81
2023-04-28T13:57:18.040Z,97311.38
2023-04-28T13:59:45.879Z,97313.78
2023-04-28T14:02:13.881Z,97304.06
2023-04-28T14:04:48.159Z,97307.28
2023-04-28T14:07:16.418Z,97310.25
2023-04-28T14:09:43.916Z,97311.50
2023-04-28T14:12:12.371Z,97308.00
2023-04-28T14:14:40.454Z,97308.06
2023-04-28T14:17:07.833Z,97307.56
2023-04-28T14:19:35.289Z,97305.91
2023-04-28T14:22:02.865Z,97292.31
2023-04-28T14:24:30.162Z,97297.59
2023-04-28T14:26:57.971Z,97294.59
2023-04-28T14:29:25.229Z,97288.88
2023-04-28T14:31:52.581Z,97296.72
2023-04-28T14:34:19.784Z,97292.22
2023-04-28T14:36:48.689Z,97292.38
2023-04-28T14:39:16.152Z,97292.38
2023-04-28T14:41:43.433Z,97289.56
2023-04-28T14:44:10.755Z,97285.47
2023-04-28T14:46:38.191Z,97282.69
2023-04-28T14:49:06.161Z,97291.09
2023-04-28T14:51:33.505Z,97287.63
2023-04-28T14:54:00.911Z,97296.09
2023-04-28T14:56:28.255Z,97293.13
2023-04-28T14:58:55.599Z,97297.41
2023-04-28T15:01:23.070Z,97286.94
2023-04-28T15:03:50.900Z,97291.28
2023-04-28T15:06:18.425Z,97290.25
2023-04-28T15:08:46.368Z,97295.13
2023-04-28T15:11:13.699Z,97294.31
2023-04-28T15:13:43.038Z,97288.53
2023-04-28T15:16:10.742Z,97280.50
2023-04-28T15:18:38.472Z,97277.34
2023-04-28T15:21:06.420Z,97280.09
2023-04-28T15:23:33.731Z,97273.13
2023-04-28T15:26:01.409Z,97269.56
2023-04-28T15:28:28.691Z,97267.72
2023-04-28T15:30:56.363Z,97265.69
2023-04-28T15:33:24.450Z,97272.56
2023-04-28T15:35:51.916Z,97262.66
2023-04-28T15:38:19.227Z,97270.66
2023-04-28T15:40:47.296Z,97262.78
2023-04-28T15:43:14.665Z,97268.56
2023-04-28T15:45:41.884Z,97274.34
2023-04-28T15:48:10.214Z,97271.63
2023-04-28T15:50:37.736Z,97261.09
2023-04-28T15:53:05.085Z,97275.81
2023-04-28T15:55:32.415Z,97255.97
2023-04-28T15:57:59.775Z,97269.53
2023-04-28T16:00:27.921Z,97262.50
2023-04-28T16:02:55.566Z,97268.34
2023-04-28T16:05:22.931Z,97271.16
2023-04-28T16:07:50.323Z,97274.00
2023-04-28T16:10:17.878Z,97277.59
2023-04-28T16:12:45.223Z,97264.56
2023-04-28T16:15:13.989Z,97266.94
2023-04-28T16:17:41.940Z,97264.84
2023-04-28T16:20:11.163Z,97258.13
2023-04-28T16:22:40.864Z,97261.69
2023-04-28T16:25:09.515Z,97263.56
2023-04-28T16:27:38.246Z,97252.16
2023-04-28T16:30:07.445Z,97254.50
2023-04-28T16:32:37.896Z,97254.59
2023-04-28T16:35:14.835Z,97248.47
2023-04-28T16:37:43.594Z,97241.47
2023-04-28T16:40:12.173Z,97239.91
2023-04-28T16:42:39.938Z,97240.91
2023-04-28T16:45:08.291Z,97240.88
2023-04-28T16:47:35.882Z,97240.88
2023-04-28T16:50:03.417Z,97240.19
2023-04-28T16:52:30.766Z,97233.47
2023-04-28T16:54:59.008Z,97239.78
2023-04-28T16:57:26.526Z,97240.03
2023-04-28T16:59:53.885Z,97243.81
2023-04-28T17:02:21.426Z,97247.22
2023-04-28T17:04:48.814Z,97244.28
2023-04-28T17:07:16.039Z,97239.56
2023-04-28T17:09:43.403Z,97237.97
2023-04-28T17:12:11.000Z,97244.31
2023-04-28T17:14:39.293Z,97240.69
2023-04-28T17:17:06.806Z,97245.41
2023-04-28T17:19:34.097Z,97249.97
2023-04-28T17:22:03.186Z,97249.47
2023-04-28T17:24:30.575Z,97239.22
2023-04-28T17:26:57.979Z,97235.78
2023-04-28T17:29:25.409Z,97245.03
2023-04-28T17:31:53.496Z,97233.00
2023-04-28T17:34:21.110Z,97238.13
2023-04-28T17:36:48.432Z,97229.75
2023-04-28T17:39:16.601Z,97227.22
2023-04-28T17:41:45.270Z,97233.09
2023-04-28T17:44:12.926Z,97227.31
2023-04-28T17:46:40.285Z,97229.75
2023-04-28T17:49:07.731Z,97225.13
2023-04-28T17:51:35.011Z,97229.34
2023-04-28T17:54:02.305Z,97224.72
2023-04-28T17:56:29.684Z,97223.53
2023-04-28T17:58:57.205Z,97211.88
2023-04-28T18:01:24.704Z,97211.63
2023-04-28T18:03:52.031Z,97219.69
2023-04-28T18:06:22.381Z,97216.69
2023-04-28T18:08:50.040Z,97219.00
2023-04-28T18:11:17.371Z,97212.03
2023-04-28T18:13:44.729Z,97223.53
2023-04-28T18:16:15.105Z,97214.19
2023-04-28T18:18:42.530Z,97217.19
2023-04-28T18:21:10.073Z,97221.50
2023-04-28T18:23:37.767Z,97226.41
2023-04-28T18:26:05.107Z,97224.63
2023-04-28T18:28:33.996Z,97227.00
2023-04-28T18:31:07.525Z,97230.53
2023-04-28T18:33:34.836Z,97236.22
2023-04-28T18:36:07.319Z,97230.91
2023-04-28T18:38:36.698Z,97239.03
2023-04-28T18:41:15.132Z,97233.16
2023-04-28T18:43:43.539Z,97231.28
2023-04-28T18:46:11.113Z,97235.03
2023-04-28T18:48:39.091Z,97238.75
2023-04-28T18:51:06.798Z,97236.75
2023-04-28T18:53:34.036Z,97238.84
2023-04-28T18:56:01.445Z,97241.03
2023-04-28T18:58:28.988Z,97243.25
2023-04-28T19:00:56.771Z,97243.34
2023-04-28T19:03:24.354Z,97247.19
2023-04-28T19:05:51.677Z,97244.19
2023-04-28T19:08:19.025Z,97251.63
2023-04-28T19:10:47.893Z,97241.44
2023-04-28T19:13:16.197Z,97247.47
2023-04-28T19:15:43.537Z,97240.19
2023-04-28T19:18:10.960Z,97246.22
2023-04-28T19:20:38.259Z,97241.94
2023-04-28T19:23:05.698Z,97237.97
2023-04-28T19:25:35.799Z,97240.78
2023-04-28T19:28:03.005Z,97235.75
2023-04-28T19:30:30.487Z,97233.13
2023-04-28T19:32:57.873Z,97234.00
2023-04-28T19:35:25.492Z,97228.84
2023-04-28T19:37:53.041Z,97230.16
2023-04-28T19:40:20.437Z,97232.03
2023-04-28T19:42:47.882Z,97229.47
2023-04-28T19:45:17.090Z,97229.75
2023-04-28T19:47:44.883Z,97228.28
2023-04-28T19:50:12.181Z,97228.69
2023-04-28T19:52:39.976Z,97221.03
2023-04-28T19:55:08.148Z,97227.91
2023-04-28T19:57:35.493Z,97226.41
2023-04-28T20:00:03.032Z,97217.16
2023-04-28T20:02:35.265Z,97215.53
2023-04-28T20:05:03.799Z,97211.59
2023-04-28T20:07:31.096Z,97211.19
2023-04-28T20:09:58.875Z,97206.94
2023-04-28T20:12:26.552Z,97206.28
2023-04-28T20:14:54.332Z,97207.28
2023-04-28T20:17:22.287Z,97207.66
2023-04-28T20:19:50.103Z,97211.34
2023-04-28T20:22:17.640Z,97210.69
2023-04-28T20:24:45.159Z,97209.94
2023-04-28T20:27:12.803Z,97204.50
2023-04-28T20:29:40.552Z,97207.44
2023-04-28T20:32:08.161Z,97210.22
2023-04-28T20:34:36.386Z,97204.09
2023-04-28T20:37:04.424Z,97203.47
2023-04-28T20:39:31.760Z,97208.13
2023-04-28T20:42:00.870Z,97204.69
2023-04-28T20:44:28.072Z,97209.66
2023-04-28T20:46:55.570Z,97205.72
2023-04-28T20:49:22.987Z,97204.28
2023-04-28T20:51:50.278Z,97203.34
2023-04-28T20:54:17.650Z,97199.91
2023-04-28T20:56:45.419Z,97201.75
2023-04-28T20:59:12.933Z,97201.19
2023-04-28T21:01:41.200Z,97199.03
2023-04-28T21:04:08.942Z,97194.59
2023-04-28T21:06:36.694Z,97192.81
2023-04-28T21:09:04.096Z,97187.44
2023-04-28T21:11:31.513Z,97190.56
2023-04-28T21:13:58.753Z,97186.31
2023-04-28T21:16:26.165Z,97184.78
2023-04-28T21:18:54.590Z,97185.31
2023-04-28T21:21:21.923Z,97187.13
2023-04-28T21:23:49.454Z,97182.97
2023-04-28T21:26:16.930Z,97179.81
2023-04-28T21:28:44.270Z,97190.22
2023-04-28T21:31:11.630Z,97179.34
2023-04-28T21:33:39.054Z,97171.19
2023-04-28T21:36:09.993Z,97172.88
2023-04-28T21:38:38.054Z,97173.03
2023-04-28T21:41:07.662Z,97176.97
2023-04-28T21:43:35.719Z,97171.69
2023-04-28T21:46:03.049Z,97171.88
2023-04-28T21:48:30.421Z,97172.91
2023-04-28T21:50:58.185Z,97163.97
2023-04-28T21:53:25.447Z,97163.69
2023-04-28T21:55:52.634Z,97161.16
2023-04-28T21:58:20.292Z,97157.88
2023-04-28T22:00:47.940Z,97161.91
2023-04-28T22:03:16.172Z,97153.03
2023-04-28T22:05:45.142Z,97154.59
2023-04-28T22:08:13.743Z,97157.88
2023-04-28T22:10:41.402Z,97157.59
2023-04-28T22:13:09.197Z,97169.34
2023-04-28T22:15:36.733Z,97161.81
2023-04-28T22:18:04.339Z,97162.81
2023-04-28T22:20:32.600Z,97157.13
2023-04-28T22:23:00.426Z,97158.91
2023-04-28T22:25:27.638Z,97150.81
2023-04-28T22:27:54.911Z,97153.38
2023-04-28T22:30:24.351Z,97156.69
2023-04-28T22:32:53.301Z,97147.13
2023-04-28T22:35:20.681Z,97158.97
2023-04-28T22:37:48.040Z,97158.94
2023-04-28T22:40:15.532Z,97153.81
2023-04-28T22:42:43.531Z,97150.00
2023-04-28T22:45:11.823Z,97143.91
2023-04-28T22:47:41.255Z,97143.47
2023-04-28T22:50:10.587Z,97143.53
2023-04-28T22:52:38.238Z,97147.94
2023-04-28T22:55:06.623Z,97138.75
2023-04-28T22:57:34.184Z,97138.41
2023-04-28T23:00:01.998Z,97141.25
2023-04-28T23:02:29.341Z,97138.16
2023-04-28T23:04:56.996Z,97141.69
2023-04-28T23:07:24.675Z,97138.91
2023-04-28T23:09:52.466Z,97138.59
2023-04-28T23:12:19.972Z,97142.78
2023-04-28T23:14:47.294Z,97138.59
2023-04-28T23:17:14.502Z,97138.75
2023-04-28T23:19:41.796Z,97132.59
2023-04-28T23:22:09.377Z,97137.88
2023-04-28T23:24:38.061Z,97130.66
2023-04-28T23:27:05.734Z,97128.84
2023-04-28T23:29:35.251Z,97126.28
2023-04-28T23:32:05.811Z,97129.09
2023-04-28T23:34:33.182Z,97119.69
2023-04-28T23:37:01.126Z,97111.38
2023-04-28T23:39:30.254Z,97111.72
2023-04-28T23:41:58.701Z,97107.63
2023-04-28T23:44:26.059Z,97096.81
2023-04-28T23:46:54.813Z,97098.84
2023-04-28T23:49:23.819Z,97091.16
2023-04-28T23:51:51.140Z,97098.59
2023-04-28T23:54:18.321Z,97091.28
2023-04-28T23:56:45.600Z,97101.84
2023-04-28T23:59:12.813Z,97099.84
